Alford, Indiana
Current Conditions -  °F | °C
As of 12:55 PM on Thursday 23 Oct 2014 (Local Time) from KDCY Reporting Station
Clear Clear  
Wind Chill: 14°   Ceiling: Unl
Heat Index: 14°   Visibility: 10mi
Dew Point:   Wind: 5mph
Humidity: 57%   Direction: 140°SE
Pressure: 30.2"   Gusts: NA
Location:  38.4723°N, 87.3105°W
Report Text: KDCY 231755Z AUTO 14004KT 10SM CLR 14/06 A3020 RMK AO2 T01420058 10144 20003
Loading
Personal Weather Stations






























Interactive Weather Map New forecast layout! Learn more

10-Day Weather Forecast

Advertisements
Track Severe Weather on mobile